createdAt,value
2023-03-13T00:01:37.802Z,5.90
2023-03-13T00:04:06.058Z,6.30
2023-03-13T00:06:43.372Z,3.30
2023-03-13T00:09:12.779Z,7.70
2023-03-13T00:11:44.353Z,5.30
2023-03-13T00:14:15.181Z,4.70
2023-03-13T00:16:43.497Z,4.20
2023-03-13T00:19:12.754Z,4.10
2023-03-13T00:21:43.692Z,3.60
2023-03-13T00:24:17.600Z,5.70
2023-03-13T00:26:45.870Z,4.90
2023-03-13T00:29:13.846Z,4.00
2023-03-13T00:31:47.692Z,4.80
2023-03-13T00:34:17.771Z,3.70
2023-03-13T00:36:46.619Z,3.60
2023-03-13T00:39:15.842Z,5.40
2023-03-13T00:41:46.407Z,3.30
2023-03-13T00:44:14.841Z,5.80
2023-03-13T00:46:43.226Z,4.50
2023-03-13T00:49:11.418Z,9.00
2023-03-13T00:51:42.689Z,5.30
2023-03-13T00:54:11.061Z,5.60
2023-03-13T00:56:42.310Z,7.30
2023-03-13T00:59:10.384Z,4.10
2023-03-13T01:01:38.636Z,7.20
2023-03-13T01:04:08.581Z,8.40
2023-03-13T01:06:40.856Z,4.40
2023-03-13T01:09:10.634Z,4.90
2023-03-13T01:11:40.570Z,3.60
2023-03-13T01:14:11.801Z,4.50
2023-03-13T01:16:47.731Z,11.00
2023-03-13T01:19:16.749Z,5.80
2023-03-13T01:21:47.035Z,12.20
2023-03-13T01:24:15.241Z,9.60
2023-03-13T01:26:50.802Z,5.90
2023-03-13T01:29:20.392Z,6.70
2023-03-13T01:31:49.213Z,3.90
2023-03-13T01:34:23.107Z,6.50
2023-03-13T01:36:54.398Z,5.30
2023-03-13T01:39:22.619Z,5.90
2023-03-13T01:41:50.801Z,4.70
2023-03-13T01:44:24.466Z,6.50
2023-03-13T01:46:53.609Z,4.10
2023-03-13T01:49:33.440Z,6.30
2023-03-13T01:52:08.696Z,3.40
2023-03-13T01:55:04.523Z,3.00
2023-03-13T01:57:43.175Z,4.30
2023-03-13T02:00:18.497Z,3.20
2023-03-13T02:02:50.785Z,4.10
2023-03-13T02:05:21.279Z,4.50
2023-03-13T02:07:53.714Z,5.80
2023-03-13T02:10:22.320Z,6.30
2023-03-13T02:12:51.739Z,3.80
2023-03-13T02:15:22.626Z,3.40
2023-03-13T02:17:51.350Z,4.00
2023-03-13T02:20:27.112Z,4.40
2023-03-13T02:23:27.722Z,4.20
2023-03-13T02:25:56.329Z,5.30
2023-03-13T02:28:35.347Z,7.80
2023-03-13T02:31:07.062Z,3.50
2023-03-13T02:33:38.776Z,3.00
2023-03-13T02:36:10.627Z,3.10
2023-03-13T02:38:52.106Z,4.20
2023-03-13T02:41:20.194Z,4.70
2023-03-13T02:43:48.382Z,7.90
2023-03-13T02:46:18.591Z,4.40
2023-03-13T02:48:55.255Z,5.70
2023-03-13T02:51:33.431Z,3.30
2023-03-13T02:54:04.002Z,4.80
2023-03-13T02:56:34.155Z,4.70
2023-03-13T02:59:02.254Z,6.00
2023-03-13T03:01:32.927Z,4.70
2023-03-13T03:04:01.043Z,5.30
2023-03-13T03:06:36.116Z,5.10
2023-03-13T03:09:05.168Z,5.50
2023-03-13T03:11:35.239Z,5.40
2023-03-13T03:14:07.229Z,5.30
2023-03-13T03:16:38.888Z,7.60
2023-03-13T03:19:08.580Z,5.80
2023-03-13T03:21:38.113Z,9.20
2023-03-13T03:24:06.770Z,12.00
2023-03-13T03:26:35.326Z,9.50
2023-03-13T03:31:37.043Z,7.80
2023-03-13T03:34:05.582Z,7.30
2023-03-13T03:36:33.702Z,8.00
2023-03-13T03:39:02.545Z,7.90
2023-03-13T03:41:31.754Z,12.10
2023-03-13T03:43:59.968Z,11.00
2023-03-13T03:46:33.649Z,10.00
2023-03-13T03:49:02.056Z,8.10
2023-03-13T03:51:30.275Z,8.10
2023-03-13T03:53:58.453Z,8.30
2023-03-13T03:56:26.629Z,10.10
2023-03-13T03:58:56.548Z,8.80
2023-03-13T04:01:47.846Z,7.20
2023-03-13T04:04:20.734Z,8.80
2023-03-13T04:06:53.050Z,8.90
2023-03-13T04:09:21.343Z,7.10
2023-03-13T04:11:55.414Z,9.00
2023-03-13T04:14:25.511Z,5.70
2023-03-13T04:16:53.816Z,9.30
2023-03-13T04:19:22.087Z,8.10
2023-03-13T04:21:50.763Z,10.40
2023-03-13T04:24:20.513Z,14.70
2023-03-13T04:26:49.023Z,16.30
2023-03-13T04:29:17.252Z,24.70
2023-03-13T04:32:11.530Z,20.30
2023-03-13T04:35:11.574Z,11.30
2023-03-13T04:38:11.972Z,16.10
2023-03-13T04:40:58.414Z,18.90
2023-03-13T04:43:49.157Z,28.90
2023-03-13T04:46:37.702Z,30.60
2023-03-13T04:49:29.562Z,39.80
2023-03-13T04:52:22.408Z,46.30
2023-03-13T04:55:14.744Z,39.00
2023-03-13T04:57:52.545Z,34.60
2023-03-13T05:00:50.172Z,40.70
2023-03-13T05:03:29.546Z,35.00
2023-03-13T05:06:17.868Z,31.20
2023-03-13T05:09:24.303Z,32.10
2023-03-13T05:12:15.077Z,37.80
2023-03-13T05:15:08.006Z,34.80
2023-03-13T05:18:04.572Z,28.90
2023-03-13T05:21:06.227Z,41.90
2023-03-13T05:23:54.461Z,37.90
2023-03-13T05:26:37.178Z,23.60
2023-03-13T05:29:32.757Z,24.60
2023-03-13T05:32:30.620Z,29.80
2023-03-13T05:35:15.352Z,30.10
2023-03-13T05:37:59.800Z,46.10
2023-03-13T05:40:51.204Z,41.90
2023-03-13T05:43:38.448Z,28.30
2023-03-13T05:46:12.579Z,31.70
2023-03-13T05:48:57.396Z,25.70
2023-03-13T05:51:44.540Z,26.20
2023-03-13T05:54:31.871Z,17.80
2023-03-13T05:57:23.448Z,19.50
2023-03-13T06:00:09.524Z,15.30
2023-03-13T06:02:57.625Z,18.00
2023-03-13T06:05:32.327Z,16.70
2023-03-13T06:08:03.158Z,15.50
2023-03-13T06:10:32.580Z,17.70
2023-03-13T06:13:13.661Z,19.30
2023-03-13T06:15:53.872Z,17.10
2023-03-13T06:18:43.047Z,15.60
2023-03-13T06:21:11.223Z,16.20
2023-03-13T06:23:39.552Z,13.80
2023-03-13T06:26:07.829Z,13.70
2023-03-13T06:28:39.095Z,14.90
2023-03-13T06:31:08.406Z,13.40
2023-03-13T06:33:37.437Z,12.20
2023-03-13T06:36:06.910Z,11.40
2023-03-13T06:38:35.458Z,12.40
2023-03-13T06:41:03.956Z,12.10
2023-03-13T06:43:32.740Z,17.20
2023-03-13T06:46:07.964Z,16.30
2023-03-13T06:48:38.844Z,14.70
2023-03-13T06:51:11.761Z,16.10
2023-03-13T06:53:41.856Z,15.00
2023-03-13T06:56:10.140Z,19.10
2023-03-13T06:58:38.210Z,16.00
2023-03-13T07:01:11.296Z,15.20
2023-03-13T07:03:39.809Z,19.30
2023-03-13T07:06:08.450Z,17.20
2023-03-13T07:08:36.929Z,19.20
2023-03-13T07:11:07.267Z,19.00
2023-03-13T07:13:37.476Z,16.60
2023-03-13T07:16:12.994Z,19.00
2023-03-13T07:18:47.447Z,17.20
2023-03-13T07:21:15.723Z,17.20
2023-03-13T07:23:45.983Z,16.50
2023-03-13T07:26:15.330Z,13.20
2023-03-13T07:28:44.480Z,19.30
2023-03-13T07:31:16.550Z,21.70
2023-03-13T07:33:46.077Z,19.20
2023-03-13T07:36:16.796Z,16.70
2023-03-13T07:38:48.539Z,12.50
2023-03-13T07:41:17.077Z,12.00
2023-03-13T07:43:45.365Z,11.10
2023-03-13T07:46:18.888Z,13.90
2023-03-13T07:48:48.034Z,12.60
2023-03-13T07:51:33.526Z,12.30
2023-03-13T07:54:06.970Z,14.10
2023-03-13T07:56:36.026Z,11.60
2023-03-13T07:59:04.748Z,8.60
2023-03-13T08:01:33.976Z,13.30
2023-03-13T08:04:02.671Z,10.90
2023-03-13T08:06:33.928Z,19.80
2023-03-13T08:14:03.378Z,11.20
2023-03-13T08:16:34.667Z,11.60
2023-03-13T08:19:05.850Z,11.20
2023-03-13T08:21:35.481Z,13.80
2023-03-13T08:24:06.906Z,14.90
2023-03-13T08:26:41.979Z,12.50
2023-03-13T08:30:33.484Z,11.00
2023-03-13T08:33:01.512Z,11.50
2023-03-13T08:35:30.603Z,12.30
2023-03-13T08:37:59.282Z,11.80
2023-03-13T08:40:27.325Z,15.60
2023-03-13T08:42:58.039Z,10.80
2023-03-13T08:45:26.135Z,10.50
2023-03-13T08:47:54.297Z,14.90
2023-03-13T08:50:24.444Z,13.70
2023-03-13T08:52:52.887Z,14.40
2023-03-13T08:55:20.912Z,16.20
2023-03-13T08:57:48.827Z,15.40
2023-03-13T09:00:18.776Z,14.20
2023-03-13T09:02:47.069Z,19.10
2023-03-13T09:05:15.329Z,15.10
2023-03-13T09:07:43.567Z,13.00
2023-03-13T09:10:12.704Z,15.00
2023-03-13T09:12:41.763Z,16.40
2023-03-13T09:15:15.729Z,14.30
2023-03-13T09:20:13.150Z,12.90
2023-03-13T09:22:42.726Z,13.70
2023-03-13T09:25:11.507Z,16.50
2023-03-13T09:27:40.925Z,14.00
2023-03-13T09:30:10.107Z,12.00
2023-03-13T09:32:38.160Z,11.30
2023-03-13T09:35:07.945Z,13.30
2023-03-13T09:37:37.056Z,11.70
2023-03-13T09:40:08.528Z,13.30
2023-03-13T09:42:52.807Z,15.30
2023-03-13T09:45:36.072Z,18.10
2023-03-13T09:48:34.024Z,11.80
2023-03-13T09:51:13.704Z,14.50
2023-03-13T09:54:03.563Z,14.00
2023-03-13T09:56:37.438Z,16.00
2023-03-13T09:59:32.602Z,15.00
2023-03-13T10:02:01.875Z,13.50
2023-03-13T10:04:41.178Z,11.80
2023-03-13T10:07:12.595Z,14.50
2023-03-13T10:09:42.580Z,10.40
2023-03-13T10:12:18.503Z,17.00
2023-03-13T10:15:05.550Z,12.10
2023-03-13T10:17:39.084Z,19.90
2023-03-13T10:20:28.024Z,11.20
2023-03-13T10:23:14.412Z,13.20
2023-03-13T10:25:42.605Z,15.90
2023-03-13T10:28:15.607Z,12.30
2023-03-13T10:30:47.770Z,13.20
2023-03-13T10:33:25.996Z,16.50
2023-03-13T10:36:10.911Z,11.70
2023-03-13T10:38:46.799Z,10.90
2023-03-13T10:41:26.135Z,12.30
2023-03-13T10:44:15.387Z,12.00
2023-03-13T10:46:46.470Z,9.00
2023-03-13T10:49:20.185Z,12.90
2023-03-13T10:51:50.972Z,6.80
2023-03-13T10:54:24.157Z,12.20
2023-03-13T10:57:09.729Z,16.20
2023-03-13T10:59:40.937Z,9.00
2023-03-13T11:02:18.928Z,12.10
2023-03-13T11:04:49.648Z,12.00
2023-03-13T11:07:36.237Z,9.00
2023-03-13T11:10:27.301Z,17.80
2023-03-13T11:13:04.157Z,18.20
2023-03-13T11:15:50.664Z,12.70
2023-03-13T11:18:46.014Z,13.10
2023-03-13T11:21:20.437Z,10.70
2023-03-13T11:23:53.675Z,14.40
2023-03-13T11:26:35.325Z,11.70
2023-03-13T11:29:27.386Z,13.00
2023-03-13T11:32:00.746Z,13.00
2023-03-13T11:34:44.429Z,12.40
2023-03-13T11:37:16.365Z,9.40
2023-03-13T11:40:10.146Z,12.20
2023-03-13T11:42:57.450Z,15.80
2023-03-13T11:45:39.653Z,8.00
2023-03-13T11:48:09.798Z,10.40
2023-03-13T11:50:52.757Z,11.90
2023-03-13T11:53:39.919Z,11.60
2023-03-13T11:56:17.606Z,13.60
2023-03-13T11:59:24.817Z,9.20
2023-03-13T12:01:59.570Z,9.50
2023-03-13T12:04:44.369Z,9.70
2023-03-13T12:07:34.539Z,7.10
2023-03-13T12:10:13.812Z,9.80
2023-03-13T12:12:56.850Z,8.30
2023-03-13T12:18:25.147Z,8.50
2023-03-13T12:21:04.659Z,10.00
2023-03-13T12:23:37.438Z,10.60
2023-03-13T12:26:21.106Z,10.50
2023-03-13T12:29:27.079Z,9.90
2023-03-13T12:32:00.371Z,13.60
2023-03-13T12:35:06.902Z,8.20
2023-03-13T12:37:55.193Z,10.90
2023-03-13T12:40:28.586Z,15.30
2023-03-13T12:43:08.614Z,8.60
2023-03-13T12:45:39.089Z,8.90
2023-03-13T12:48:26.934Z,9.20
2023-03-13T12:51:13.590Z,11.90
2023-03-13T12:53:50.507Z,9.30
2023-03-13T12:56:36.272Z,6.50
2023-03-13T12:59:07.393Z,9.70
2023-03-13T13:02:03.804Z,11.60
2023-03-13T13:04:33.837Z,9.20
2023-03-13T13:07:04.050Z,13.40
2023-03-13T13:09:37.462Z,12.40
2023-03-13T13:12:21.497Z,12.40
2023-03-13T13:14:49.444Z,9.00
2023-03-13T13:17:39.108Z,11.30
2023-03-13T13:20:31.100Z,8.80
2023-03-13T13:23:26.580Z,13.20
2023-03-13T13:25:56.079Z,9.10
2023-03-13T13:28:35.143Z,10.10
2023-03-13T13:31:03.583Z,10.10
2023-03-13T13:33:38.152Z,12.80
2023-03-13T13:36:09.505Z,12.80
2023-03-13T13:38:42.753Z,13.30
2023-03-13T13:41:11.660Z,6.70
2023-03-13T13:43:42.105Z,8.80
2023-03-13T13:46:30.058Z,10.20
2023-03-13T13:49:08.777Z,14.80
2023-03-13T13:51:41.075Z,11.40
2023-03-13T13:54:12.817Z,8.50
2023-03-13T13:56:50.241Z,7.80
2023-03-13T13:59:22.405Z,7.10
2023-03-13T14:02:21.032Z,10.10
2023-03-13T14:05:06.534Z,6.20
2023-03-13T14:07:41.640Z,8.80
2023-03-13T14:10:34.402Z,10.20
2023-03-13T14:13:11.273Z,10.80
2023-03-13T14:15:46.293Z,12.00
2023-03-13T14:18:23.029Z,7.20
2023-03-13T14:21:01.093Z,9.80
2023-03-13T14:23:46.110Z,7.30
2023-03-13T14:26:22.482Z,8.00
2023-03-13T14:28:54.495Z,11.60
2023-03-13T14:31:33.411Z,13.90
2023-03-13T14:34:08.317Z,10.30
2023-03-13T14:37:17.589Z,12.20
2023-03-13T14:39:49.385Z,11.60
2023-03-13T14:42:18.644Z,14.40
2023-03-13T14:44:49.271Z,10.00
2023-03-13T14:47:25.691Z,8.20
2023-03-13T14:50:04.988Z,8.40
2023-03-13T14:52:34.103Z,8.30
2023-03-13T14:55:10.565Z,11.30
2023-03-13T14:57:41.089Z,12.00
2023-03-13T15:00:35.725Z,16.70
2023-03-13T15:03:17.125Z,11.20
2023-03-13T15:06:15.026Z,13.10
2023-03-13T15:08:48.108Z,12.30
2023-03-13T15:11:26.316Z,7.70
2023-03-13T15:13:55.308Z,9.50
2023-03-13T15:16:24.046Z,12.30
2023-03-13T15:18:52.754Z,12.60
2023-03-13T15:21:22.632Z,9.20
2023-03-13T15:23:53.322Z,12.20
2023-03-13T15:26:22.725Z,7.00
2023-03-13T15:28:51.132Z,9.10
2023-03-13T15:31:19.182Z,9.60
2023-03-13T15:33:47.454Z,8.30
2023-03-13T15:36:21.501Z,11.20
2023-03-13T15:38:51.821Z,13.00
2023-03-13T15:41:23.131Z,11.30
2023-03-13T15:43:52.831Z,12.80
2023-03-13T15:46:21.303Z,11.30
2023-03-13T15:48:51.464Z,14.70
2023-03-13T15:51:21.054Z,12.10
2023-03-13T15:53:49.638Z,10.80
2023-03-13T15:56:20.010Z,11.60
2023-03-13T15:58:51.588Z,16.70
2023-03-13T16:01:23.270Z,14.20
2023-03-13T16:03:51.771Z,14.40
2023-03-13T16:06:28.331Z,9.80
2023-03-13T16:09:01.603Z,11.30
2023-03-13T16:11:29.946Z,9.30
2023-03-13T16:14:00.540Z,8.70
2023-03-13T16:16:31.314Z,14.90
2023-03-13T16:19:00.720Z,11.10
2023-03-13T16:21:30.376Z,13.40
2023-03-13T16:23:59.305Z,11.00
2023-03-13T16:26:29.299Z,30.60
2023-03-13T16:28:58.258Z,14.50
2023-03-13T16:31:28.584Z,12.50
2023-03-13T16:33:58.026Z,11.90
2023-03-13T16:36:30.565Z,12.80
2023-03-13T16:38:59.902Z,19.60
2023-03-13T16:41:28.679Z,12.60
2023-03-13T16:43:57.497Z,11.90
2023-03-13T16:46:36.086Z,20.10
2023-03-13T16:49:04.474Z,16.80
2023-03-13T16:51:34.284Z,12.30
2023-03-13T16:54:03.657Z,18.20
2023-03-13T16:56:40.169Z,12.00
2023-03-13T16:59:15.383Z,11.40
2023-03-13T17:01:44.788Z,11.80
2023-03-13T17:04:13.395Z,12.10
2023-03-13T17:06:42.596Z,9.80
2023-03-13T17:09:12.793Z,13.00
2023-03-13T17:11:44.172Z,11.10
2023-03-13T17:14:13.689Z,14.80
2023-03-13T17:16:43.162Z,16.20
2023-03-13T17:19:14.770Z,11.20
2023-03-13T17:21:42.788Z,13.00
2023-03-13T17:24:10.877Z,12.50
2023-03-13T17:29:17.026Z,15.70
2023-03-13T17:31:45.134Z,18.10
2023-03-13T17:34:16.930Z,12.80
2023-03-13T17:36:45.776Z,14.80
2023-03-13T17:39:14.752Z,16.70
2023-03-13T17:41:42.865Z,13.20
2023-03-13T17:44:11.172Z,14.10
2023-03-13T17:46:47.019Z,10.70
2023-03-13T17:49:17.282Z,15.10
2023-03-13T17:51:46.442Z,15.30
2023-03-13T17:54:16.002Z,15.00
2023-03-13T17:56:44.773Z,17.80
2023-03-13T17:59:17.517Z,16.10
2023-03-13T18:01:48.343Z,17.00
2023-03-13T18:04:21.360Z,22.30
2023-03-13T18:06:50.544Z,16.90
2023-03-13T18:09:20.817Z,22.20
2023-03-13T18:11:50.048Z,12.80
2023-03-13T18:14:19.620Z,17.40
2023-03-13T18:16:50.749Z,16.80
2023-03-13T18:19:22.400Z,13.30
2023-03-13T18:21:54.301Z,17.50
2023-03-13T18:24:28.090Z,14.20
2023-03-13T18:26:57.179Z,14.60
2023-03-13T18:29:29.472Z,17.00
2023-03-13T18:31:59.010Z,17.00
2023-03-13T18:34:27.696Z,20.80
2023-03-13T18:36:55.979Z,23.90
2023-03-13T18:39:25.403Z,31.60
2023-03-13T18:41:53.515Z,66.40
2023-03-13T18:44:23.055Z,25.30
2023-03-13T18:46:52.101Z,22.00
2023-03-13T18:49:23.598Z,20.90
2023-03-13T18:51:53.328Z,18.10
2023-03-13T18:54:21.755Z,18.80
2023-03-13T18:56:50.979Z,23.00
2023-03-13T18:59:20.883Z,15.70
2023-03-13T19:01:49.192Z,14.20
2023-03-13T19:04:18.209Z,14.80
2023-03-13T19:06:50.982Z,15.20
2023-03-13T19:09:42.138Z,20.80
2023-03-13T19:12:10.208Z,19.50
2023-03-13T19:14:38.965Z,14.50
2023-03-13T19:17:07.492Z,16.20
2023-03-13T19:19:35.677Z,20.30
2023-03-13T19:22:05.515Z,17.30
2023-03-13T19:24:34.111Z,17.60
2023-03-13T19:27:13.080Z,19.20
2023-03-13T19:29:42.099Z,19.30
2023-03-13T19:32:17.173Z,17.70
2023-03-13T19:34:45.293Z,15.70
2023-03-13T19:37:14.437Z,16.20
2023-03-13T19:39:42.773Z,16.20
2023-03-13T19:42:11.736Z,19.10
2023-03-13T19:44:44.664Z,16.80
2023-03-13T19:47:14.708Z,16.00
2023-03-13T19:49:43.120Z,15.80
2023-03-13T19:52:11.966Z,17.90
2023-03-13T19:54:40.040Z,14.20
2023-03-13T19:57:11.385Z,18.70
2023-03-13T19:59:40.254Z,19.00
2023-03-13T20:02:11.574Z,13.70
2023-03-13T20:04:45.308Z,14.60
2023-03-13T20:07:13.638Z,17.40
2023-03-13T20:09:46.726Z,18.70
2023-03-13T20:12:17.330Z,20.10
2023-03-13T20:14:45.561Z,16.50
2023-03-13T20:17:13.972Z,19.30
2023-03-13T20:19:41.954Z,18.20
2023-03-13T20:22:10.387Z,16.20
2023-03-13T20:24:38.981Z,17.00
2023-03-13T20:27:07.828Z,13.00
2023-03-13T20:29:37.691Z,15.70
2023-03-13T20:32:06.049Z,12.60
2023-03-13T20:37:04.875Z,17.90
2023-03-13T20:39:37.532Z,16.80
2023-03-13T20:42:10.648Z,16.10
2023-03-13T20:47:35.811Z,17.40
2023-03-13T20:50:04.267Z,16.90
2023-03-13T20:52:33.240Z,14.30
2023-03-13T20:55:01.229Z,17.90
2023-03-13T20:57:32.701Z,16.80
2023-03-13T21:00:01.151Z,12.60
2023-03-13T21:02:29.413Z,13.40
2023-03-13T21:04:57.917Z,10.30
2023-03-13T21:07:26.115Z,12.10
2023-03-13T21:09:54.193Z,12.90
2023-03-13T21:12:23.081Z,17.40
2023-03-13T21:14:55.098Z,18.00
2023-03-13T21:17:29.206Z,13.00
2023-03-13T21:19:58.236Z,16.90
2023-03-13T21:22:28.521Z,12.90
2023-03-13T21:24:57.107Z,13.90
2023-03-13T21:27:25.161Z,11.80
2023-03-13T21:29:54.683Z,10.90
2023-03-13T21:32:23.329Z,13.20
2023-03-13T21:34:51.668Z,11.10
2023-03-13T21:37:20.038Z,14.70
2023-03-13T21:39:52.194Z,13.50
2023-03-13T21:42:20.508Z,12.10
2023-03-13T21:44:48.871Z,9.90
2023-03-13T21:47:26.770Z,14.10
2023-03-13T21:49:54.777Z,12.30
2023-03-13T21:52:23.396Z,9.50
2023-03-13T21:54:52.311Z,12.60
2023-03-13T21:57:20.600Z,13.00
2023-03-13T22:00:00.622Z,12.80
2023-03-13T22:02:29.472Z,14.20
2023-03-13T22:04:57.581Z,12.50
2023-03-13T22:07:25.810Z,11.70
2023-03-13T22:09:54.014Z,17.40
2023-03-13T22:12:23.723Z,17.60
2023-03-13T22:14:53.870Z,15.00
2023-03-13T22:17:28.076Z,15.50
2023-03-13T22:19:56.079Z,15.90
2023-03-13T22:22:25.662Z,12.50
2023-03-13T22:24:54.450Z,17.40
2023-03-13T22:27:24.281Z,14.30
2023-03-13T22:29:52.742Z,13.70
2023-03-13T22:32:21.133Z,16.10
2023-03-13T22:34:49.745Z,19.00
2023-03-13T22:37:22.339Z,13.40
2023-03-13T22:39:54.036Z,16.40
2023-03-13T22:42:22.701Z,16.00
2023-03-13T22:44:50.877Z,10.20
2023-03-13T22:47:19.168Z,14.00
2023-03-13T22:49:47.038Z,12.70
2023-03-13T22:52:15.047Z,12.80
2023-03-13T22:54:42.976Z,13.30
2023-03-13T22:57:11.072Z,17.60
2023-03-13T22:59:39.154Z,11.80
2023-03-13T23:02:08.527Z,9.80
2023-03-13T23:04:36.615Z,13.50
2023-03-13T23:07:05.940Z,11.60
2023-03-13T23:09:34.496Z,11.70
2023-03-13T23:12:02.705Z,11.10
2023-03-13T23:14:32.409Z,10.10
2023-03-13T23:17:00.776Z,10.20
2023-03-13T23:19:28.989Z,9.30
2023-03-13T23:21:56.935Z,16.40
2023-03-13T23:24:25.045Z,10.80
2023-03-13T23:26:58.031Z,12.00
2023-03-13T23:29:26.051Z,5.80
2023-03-13T23:31:54.803Z,18.20
2023-03-13T23:34:22.906Z,12.10
2023-03-13T23:36:51.057Z,17.10
2023-03-13T23:41:51.384Z,16.70
2023-03-13T23:44:19.526Z,15.90
2023-03-13T23:46:47.704Z,10.30
2023-03-13T23:49:15.913Z,12.10
2023-03-13T23:51:47.265Z,9.80
2023-03-13T23:54:16.970Z,15.70
2023-03-13T23:56:45.138Z,14.70
2023-03-13T23:59:13.216Z,14.00
